Time;durP1;ratioP1;P1;durP2;ratioP2;P2;SDS_P1;SDS_P2;PMS_P1;PMS_P2;Temp;Humidity;BMP_temperature;BMP_pressure;BME280_temperature;BME280_humidity;BME280_pressure;Samples;Min_cycle;Max_cycle;Signal;HPM_P1;HPM_P2
2023/01/24 00:00:08;;;;;;;23.13;14.13;;;2.60;99.90;;;;;;5003580;28;20038;-74
2023/01/24 00:02:34;;;;;;;24.05;14.23;;;2.60;99.90;;;;;;5003775;28;20046;-73
2023/01/24 00:05:00;;;;;;;25.08;14.60;;;2.60;99.90;;;;;;5004742;28;20048;-74
2023/01/24 00:07:25;;;;;;;25.75;15.57;;;2.60;99.90;;;;;;5003008;28;20050;-73
2023/01/24 00:09:51;;;;;;;27.90;15.48;;;2.60;99.90;;;;;;5003040;28;20038;-73
2023/01/24 00:12:16;;;;;;;25.20;15.52;;;2.60;99.90;;;;;;5004938;28;20038;-73
2023/01/24 00:14:42;;;;;;;23.90;14.80;;;2.60;99.90;;;;;;5001457;28;21667;-73
2023/01/24 00:17:08;;;;;;;24.88;14.70;;;2.60;99.90;;;;;;5003152;28;20046;-73
2023/01/24 00:19:34;;;;;;;25.27;15.38;;;2.60;99.90;;;;;;5005709;28;20056;-73
2023/01/24 00:22:02;;;;;;;26.92;16.20;;;2.60;99.90;;;;;;5004166;28;20078;-73
2023/01/24 00:24:28;;;;;;;24.20;15.85;;;2.60;99.90;;;;;;5006304;28;20502;-73
2023/01/24 00:26:54;;;;;;;24.67;14.70;;;2.60;99.90;;;;;;5004859;28;20442;-74
2023/01/24 00:29:20;;;;;;;26.80;16.52;;;2.60;99.90;;;;;;5003895;28;20037;-74
2023/01/24 00:31:45;;;;;;;27.38;16.25;;;2.60;99.90;;;;;;5006128;28;20387;-73
2023/01/24 00:34:11;;;;;;;28.63;16.60;;;2.60;99.90;;;;;;5008361;28;20052;-73
2023/01/24 00:36:37;;;;;;;27.77;15.82;;;2.60;99.90;;;;;;5003816;28;20423;-73
2023/01/24 00:39:02;;;;;;;26.10;15.45;;;2.60;99.90;;;;;;5006865;28;20443;-74
2023/01/24 00:41:28;;;;;;;24.95;16.42;;;2.60;99.90;;;;;;5006354;28;20033;-74
2023/01/24 00:43:54;;;;;;;29.52;17.45;;;2.80;99.90;;;;;;5005426;28;20376;-74
2023/01/24 00:46:19;;;;;;;31.63;17.33;;;2.50;99.90;;;;;;5004628;28;20045;-73
2023/01/24 00:48:45;;;;;;;27.25;17.95;;;2.50;99.90;;;;;;5009090;28;20156;-73
2023/01/24 00:51:11;;;;;;;29.17;17.50;;;2.60;99.90;;;;;;5003175;28;20038;-73
2023/01/24 00:53:36;;;;;;;29.45;17.60;;;2.60;99.90;;;;;;5010638;28;20046;-74
2023/01/24 00:56:02;;;;;;;27.83;16.52;;;2.50;99.90;;;;;;5004767;28;20042;-74
2023/01/24 00:58:28;;;;;;;31.33;17.13;;;2.50;99.90;;;;;;5005271;28;20046;-74
2023/01/24 01:00:58;;;;;;;28.42;17.33;;;2.50;99.90;;;;;;5007549;28;20053;-74
2023/01/24 01:03:24;;;;;;;29.95;16.83;;;2.50;99.90;;;;;;5011221;28;20427;-74
2023/01/24 01:05:49;;;;;;;29.77;17.65;;;2.70;99.90;;;;;;5014624;28;20045;-73
2023/01/24 01:08:15;;;;;;;30.85;17.95;;;2.50;99.90;;;;;;5015719;28;20049;-73
2023/01/24 01:10:41;;;;;;;34.88;18.17;;;2.50;99.90;;;;;;5009236;28;20125;-74
2023/01/24 01:13:07;;;;;;;32.65;17.98;;;2.50;99.90;;;;;;5009620;28;20391;-74
2023/01/24 01:15:33;;;;;;;30.52;18.70;;;2.50;99.90;;;;;;5000617;28;20504;-74
2023/01/24 01:17:58;;;;;;;32.58;18.02;;;2.50;99.90;;;;;;5007642;28;20038;-73
2023/01/24 01:20:25;;;;;;;30.60;19.02;;;2.50;99.90;;;;;;5006548;28;20045;-73
2023/01/24 01:22:50;;;;;;;33.17;18.88;;;2.50;99.90;;;;;;5004080;28;20049;-74
2023/01/24 01:25:16;;;;;;;35.58;20.02;;;2.50;99.90;;;;;;5005063;28;20037;-73
2023/01/24 01:27:42;;;;;;;32.03;18.23;;;2.50;99.90;;;;;;5002841;28;20046;-74
2023/01/24 01:30:08;;;;;;;33.33;18.95;;;2.50;99.90;;;;;;5005691;28;20566;-75
2023/01/24 01:32:34;;;;;;;34.10;19.65;;;2.60;99.90;;;;;;5005533;28;20120;-75
2023/01/24 01:34:59;;;;;;;33.40;19.50;;;2.60;99.90;;;;;;5004304;28;20373;-73
2023/01/24 01:37:25;;;;;;;30.02;17.63;;;2.60;99.90;;;;;;5002847;28;20048;-74
2023/01/24 01:39:51;;;;;;;31.00;18.83;;;2.60;99.90;;;;;;5019214;28;20366;-75
2023/01/24 01:42:17;;;;;;;37.65;19.60;;;2.60;99.90;;;;;;4987954;28;20042;-74
2023/01/24 01:44:47;;;;;;;33.30;19.25;;;2.70;99.90;;;;;;5007594;28;20535;-74
2023/01/24 01:47:25;;;;;;;36.63;20.27;;;2.60;99.90;;;;;;5004069;28;20037;-74
2023/01/24 01:50:00;;;;;;;33.97;19.40;;;2.60;99.90;;;;;;4987787;28;20041;-75
2023/01/24 01:52:29;;;;;;;32.63;19.55;;;2.60;99.90;;;;;;5013670;28;20149;-74
2023/01/24 01:55:00;;;;;;;31.42;18.73;;;2.60;99.90;;;;;;4999506;28;20062;-74
2023/01/24 01:57:30;;;;;;;36.03;21.35;;;2.60;99.90;;;;;;5000547;28;20041;-74
2023/01/24 02:00:11;;;;;;;37.00;21.00;;;2.60;99.90;;;;;;5001518;28;20056;-73
2023/01/24 02:02:42;;;;;;;34.28;19.95;;;2.60;99.90;;;;;;5006983;28;20395;-74
2023/01/24 02:05:11;;;;;;;37.15;20.85;;;2.60;99.90;;;;;;5004738;28;20549;-74
2023/01/24 02:07:54;;;;;;;39.47;22.08;;;2.60;99.90;;;;;;4999978;28;20069;-74
2023/01/24 02:10:22;;;;;;;34.05;20.17;;;2.50;99.90;;;;;;5001939;28;20053;-74
2023/01/24 02:12:52;;;;;;;35.45;21.10;;;2.60;99.90;;;;;;5006857;28;20061;-74
2023/01/24 02:18:07;;;;;;;34.67;20.98;;;2.60;99.90;;;;;;5006789;28;20042;-74
2023/01/24 02:20:45;;;;;;;36.85;21.50;;;2.60;99.90;;;;;;5008422;28;20038;-74
2023/01/24 02:23:51;;;;;;;37.35;21.40;;;2.60;99.90;;;;;;5009161;28;20450;-74
2023/01/24 02:26:20;;;;;;;35.00;20.25;;;2.60;99.90;;;;;;5004650;28;20038;-74
2023/01/24 02:29:09;;;;;;;39.70;21.17;;;3.00;99.90;;;;;;5000965;28;20050;-74
2023/01/24 02:31:56;;;;;;;37.90;20.88;;;2.60;99.90;;;;;;5008436;28;20041;-73
2023/01/24 02:34:23;;;;;;;35.95;20.52;;;2.50;99.90;;;;;;5004482;28;20066;-74
2023/01/24 02:36:58;;;;;;;34.53;20.63;;;2.50;99.90;;;;;;5007448;28;20042;-74
2023/01/24 02:39:35;;;;;;;37.47;21.10;;;2.50;99.90;;;;;;5009635;28;20092;-73
2023/01/24 02:42:07;;;;;;;34.03;20.33;;;2.60;99.90;;;;;;5007484;28;20050;-74
2023/01/24 02:45:08;;;;;;;35.53;20.63;;;2.60;99.90;;;;;;5004097;28;20050;-74
2023/01/24 02:47:36;;;;;;;;;;;2.60;99.90;;;;;;5011074;28;20376;-73
2023/01/24 02:50:03;;;;;;;36.00;20.90;;;2.50;99.90;;;;;;5006596;28;19945;-73
2023/01/24 02:55:13;;;;;;;34.35;18.92;;;2.50;99.90;;;;;;5007200;28;20081;-73
2023/01/24 03:00:24;;;;;;;34.00;19.58;;;2.60;99.90;;;;;;5006320;28;20047;-73
2023/01/24 03:02:49;;;;;;;32.30;19.58;;;2.60;99.90;;;;;;5005417;28;20379;-73
2023/01/24 03:05:15;;;;;;;33.08;19.15;;;2.60;99.90;;;;;;5005362;28;20048;-73
2023/01/24 03:07:41;;;;;;;32.28;18.95;;;2.60;99.90;;;;;;5008411;28;20054;-73
2023/01/24 03:10:12;;;;;;;35.47;19.38;;;2.60;99.90;;;;;;5004810;28;20080;-73
2023/01/24 03:34:45;;;;;;;30.75;18.42;;;2.60;99.90;;;;;;5012154;28;20072;-74
2023/01/24 03:37:11;;;;;;;28.02;17.00;;;2.60;99.90;;;;;;5009357;28;20466;-74
2023/01/24 03:39:58;;;;;;;29.70;18.33;;;2.60;99.90;;;;;;4988056;28;20042;-74
2023/01/24 03:42:27;;;;;;;28.35;17.67;;;2.60;99.90;;;;;;5006424;28;20064;-74
2023/01/24 03:44:53;;;;;;;30.75;19.42;;;2.60;99.90;;;;;;5005295;28;20042;-74
2023/01/24 03:47:19;;;;;;;31.75;18.55;;;2.60;99.90;;;;;;5001289;28;20041;-74
2023/01/24 03:52:29;;;;;;;34.75;19.92;;;2.60;99.90;;;;;;5009000;28;20050;-74
2023/01/24 03:54:56;;;;;;;33.63;20.65;;;2.60;99.90;;;;;;5008786;28;20080;-74
2023/01/24 03:57:22;;;;;;;36.72;20.75;;;2.60;99.90;;;;;;5006587;28;20042;-74
2023/01/24 03:59:48;;;;;;;34.55;20.67;;;2.50;99.90;;;;;;5004916;28;20080;-74
2023/01/24 04:02:14;;;;;;;37.90;20.80;;;2.50;99.90;;;;;;5007962;28;20419;-73
2023/01/24 04:07:24;;;;;;;33.42;19.30;;;2.60;99.90;;;;;;5009886;28;20499;-74
2023/01/24 04:09:50;;;;;;;32.50;19.15;;;2.50;99.90;;;;;;5003327;28;20048;-73
2023/01/24 04:12:16;;;;;;;32.22;19.40;;;2.50;99.90;;;;;;5018924;28;20038;-73
2023/01/24 04:14:42;;;;;;;29.25;18.67;;;2.50;99.90;;;;;;5006131;28;20048;-73
2023/01/24 04:17:09;;;;;;;23.33;14.90;;;2.50;99.90;;;;;;5005818;28;20037;-73
2023/01/24 04:19:34;;;;;;;20.10;13.10;;;2.50;99.90;;;;;;5006075;28;20116;-73
2023/01/24 04:22:00;;;;;;;26.63;14.85;;;2.50;99.90;;;;;;5001760;28;20168;-74
2023/01/24 04:24:25;;;;;;;25.83;15.23;;;2.60;99.90;;;;;;5004706;28;20424;-73
2023/01/24 04:26:51;;;;;;;26.15;15.82;;;2.60;99.90;;;;;;5017891;28;20057;-73
2023/01/24 04:29:16;;;;;;;24.25;14.82;;;2.60;99.90;;;;;;5004229;28;20057;-75
2023/01/24 04:31:42;;;;;;;26.27;15.45;;;2.60;99.90;;;;;;5002639;28;20425;-73
2023/01/24 04:34:08;;;;;;;22.23;14.65;;;2.60;99.90;;;;;;5002362;28;20046;-74
2023/01/24 04:36:34;;;;;;;24.58;15.35;;;2.60;99.90;;;;;;5004196;28;20069;-74
2023/01/24 04:38:59;;;;;;;23.95;15.38;;;2.60;99.90;;;;;;5004518;28;20379;-73
2023/01/24 04:41:25;;;;;;;23.80;15.02;;;2.60;99.90;;;;;;5005926;28;20033;-74
2023/01/24 04:43:51;;;;;;;24.15;15.05;;;2.60;99.90;;;;;;5005094;28;20042;-74
2023/01/24 04:46:16;;;;;;;26.90;16.25;;;2.60;99.90;;;;;;5000200;28;20042;-74
2023/01/24 04:48:42;;;;;;;24.63;15.38;;;2.50;99.90;;;;;;5003601;28;20042;-74
2023/01/24 04:51:09;;;;;;;24.58;16.23;;;2.50;99.90;;;;;;5003687;28;20153;-74
2023/01/24 04:53:38;;;;;;;27.48;17.08;;;2.60;99.90;;;;;;5003323;28;20124;-74
2023/01/24 04:56:04;;;;;;;27.73;17.63;;;2.60;99.90;;;;;;5005812;28;20077;-73
2023/01/24 04:58:30;;;;;;;31.23;18.25;;;2.60;99.90;;;;;;5005096;28;20046;-74
2023/01/24 05:00:56;;;;;;;27.88;16.40;;;2.60;99.90;;;;;;5004391;28;20057;-74
2023/01/24 05:03:22;;;;;;;24.40;15.32;;;2.50;99.90;;;;;;5004211;28;20476;-73
2023/01/24 05:05:51;;;;;;;21.73;14.95;;;2.60;99.90;;;;;;5004169;28;20034;-74
2023/01/24 05:08:16;;;;;;;23.98;15.30;;;2.60;99.90;;;;;;5003789;28;20050;-73
2023/01/24 05:10:42;;;;;;;24.88;16.27;;;2.60;99.90;;;;;;5011045;28;20046;-73
2023/01/24 05:13:08;;;;;;;28.77;17.27;;;2.60;99.90;;;;;;5005183;28;20049;-74
2023/01/24 05:15:34;;;;;;;23.15;15.63;;;2.60;99.90;;;;;;5005279;28;20152;-73
2023/01/24 05:17:59;;;;;;;24.67;16.60;;;2.60;99.90;;;;;;5004326;28;20079;-73
2023/01/24 05:20:25;;;;;;;24.08;15.68;;;2.60;99.90;;;;;;5005583;28;20038;-73
2023/01/24 05:22:51;;;;;;;24.25;15.73;;;2.60;99.90;;;;;;5005580;28;20078;-73
2023/01/24 05:25:17;;;;;;;26.38;15.82;;;2.70;99.90;;;;;;5010326;28;20049;-73
2023/01/24 05:27:44;;;;;;;24.73;15.73;;;2.60;99.90;;;;;;5007838;28;20176;-74
2023/01/24 05:30:10;;;;;;;21.83;14.63;;;2.60;99.90;;;;;;5005694;28;20046;-73
2023/01/24 05:32:36;;;;;;;23.95;15.80;;;2.50;99.90;;;;;;5006061;28;20048;-72
2023/01/24 05:35:03;;;;;;;25.20;16.50;;;2.50;99.90;;;;;;5005161;28;20041;-74
2023/01/24 05:37:28;;;;;;;25.73;15.93;;;2.60;99.90;;;;;;5004032;28;20451;-74
2023/01/24 05:39:54;;;;;;;23.50;16.25;;;2.50;99.90;;;;;;5003706;28;20121;-73
2023/01/24 05:42:20;;;;;;;24.15;15.80;;;2.50;99.90;;;;;;5006781;28;20042;-74
2023/01/24 05:44:45;;;;;;;28.15;16.65;;;2.50;99.90;;;;;;5006703;28;21409;-72
2023/01/24 05:47:11;;;;;;;25.10;15.82;;;2.60;99.90;;;;;;5003278;28;21226;-74
2023/01/24 05:49:36;;;;;;;25.05;15.68;;;2.50;99.90;;;;;;5002764;28;20124;-74
2023/01/24 05:52:02;;;;;;;27.15;16.05;;;2.50;99.90;;;;;;5003449;28;20046;-74
2023/01/24 05:54:28;;;;;;;30.33;16.77;;;2.50;99.90;;;;;;5002812;28;20037;-73
2023/01/24 05:56:53;;;;;;;23.98;15.38;;;2.60;99.90;;;;;;5003389;28;20104;-73
2023/01/24 05:59:19;;;;;;;25.63;15.52;;;2.50;99.90;;;;;;5005092;28;20128;-73
2023/01/24 06:01:45;;;;;;;24.35;15.73;;;2.50;99.90;;;;;;5002489;28;20164;-73
2023/01/24 06:04:10;;;;;;;26.13;15.38;;;2.50;99.90;;;;;;5003714;28;21255;-74
2023/01/24 06:06:36;;;;;;;22.88;15.55;;;2.50;99.90;;;;;;5002149;28;20049;-73
2023/01/24 06:09:02;;;;;;;25.75;16.67;;;2.50;99.90;;;;;;5004540;28;20107;-73
2023/01/24 06:11:28;;;;;;;28.25;16.90;;;2.50;99.90;;;;;;5002100;28;20459;-74
2023/01/24 06:13:55;;;;;;;27.52;17.38;;;2.50;99.90;;;;;;5007806;28;20133;-74
2023/01/24 06:16:23;;;;;;;28.15;17.17;;;2.50;99.90;;;;;;5004089;28;20048;-73
2023/01/24 06:18:50;;;;;;;28.05;17.88;;;2.50;99.90;;;;;;5007906;28;20034;-73
2023/01/24 06:21:31;;;;;;;26.20;16.73;;;2.50;99.90;;;;;;5004509;28;20062;-72
2023/01/24 06:23:57;;;;;;;25.75;15.88;;;2.50;99.90;;;;;;5008583;28;20050;-72
2023/01/24 06:26:22;;;;;;;25.73;16.17;;;2.50;99.90;;;;;;5007278;28;20515;-73
2023/01/24 06:28:48;;;;;;;25.95;17.27;;;2.50;99.90;;;;;;5003789;28;20072;-73
2023/01/24 06:31:17;;;;;;;25.70;16.38;;;2.40;99.90;;;;;;5006867;28;20495;-74
2023/01/24 06:34:08;;;;;;;29.95;18.42;;;2.50;99.90;;;;;;5007724;28;20104;-73
2023/01/24 06:36:53;;;;;;;27.02;17.05;;;2.40;99.90;;;;;;5002886;28;20053;-72
2023/01/24 06:39:20;;;;;;;31.55;18.75;;;2.40;99.90;;;;;;5000797;28;20054;-73
2023/01/24 06:41:47;;;;;;;31.10;18.95;;;2.40;99.90;;;;;;4999553;28;20060;-73
2023/01/24 06:44:13;;;;;;;29.02;17.88;;;2.40;99.90;;;;;;5008597;28;21701;-73
2023/01/24 06:46:38;;;;;;;29.77;17.95;;;2.40;99.90;;;;;;5009552;28;20049;-73
2023/01/24 06:49:04;;;;;;;31.00;17.80;;;2.40;99.90;;;;;;5008889;28;20034;-71
2023/01/24 06:51:30;;;;;;;32.50;18.02;;;2.40;99.90;;;;;;4998262;28;20046;-72
2023/01/24 06:53:55;;;;;;;28.38;17.60;;;2.40;99.90;;;;;;5004083;28;20049;-72
2023/01/24 06:56:21;;;;;;;28.27;17.55;;;2.40;99.90;;;;;;5001565;28;20125;-72
2023/01/24 06:58:47;;;;;;;31.52;19.10;;;2.40;99.90;;;;;;5006307;28;20045;-72
2023/01/24 07:01:13;;;;;;;34.13;18.77;;;2.40;99.90;;;;;;5011411;28;20038;-73
2023/01/24 07:03:38;;;;;;;28.85;17.50;;;2.40;99.90;;;;;;5009802;28;20046;-72
2023/01/24 07:06:04;;;;;;;29.45;17.80;;;2.40;99.90;;;;;;5017522;28;20039;-72
2023/01/24 07:08:30;;;;;;;30.75;19.38;;;2.40;99.90;;;;;;5006736;28;20141;-73
2023/01/24 07:10:58;;;;;;;28.33;17.20;;;2.40;99.90;;;;;;5004848;28;20042;-72
2023/01/24 07:13:24;;;;;;;30.73;18.65;;;2.40;99.90;;;;;;5006848;28;20446;-72
2023/01/24 07:15:50;;;;;;;29.33;18.67;;;2.40;99.90;;;;;;5011017;28;20080;-72
2023/01/24 07:18:19;;;;;;;30.98;17.50;;;2.40;99.90;;;;;;5016628;28;20524;-71
2023/01/24 07:20:45;;;;;;;28.83;18.13;;;2.40;99.90;;;;;;4994426;28;20072;-72
2023/01/24 07:23:43;;;;;;;25.30;16.73;;;2.40;99.90;;;;;;5005215;28;20533;-72
2023/01/24 07:26:11;;;;;;;27.45;17.63;;;2.40;99.90;;;;;;5007956;28;20077;-72
2023/01/24 07:28:37;;;;;;;23.92;15.15;;;2.30;99.90;;;;;;5014783;28;20052;-72
2023/01/24 07:31:03;;;;;;;26.10;16.17;;;2.40;99.90;;;;;;5015069;28;20169;-72
2023/01/24 07:33:29;;;;;;;22.58;13.85;;;2.40;99.90;;;;;;5015636;28;20038;-72
2023/01/24 07:35:55;;;;;;;23.13;14.23;;;2.40;99.90;;;;;;5016310;28;20048;-73
2023/01/24 07:38:20;;;;;;;23.30;13.50;;;2.30;99.90;;;;;;5015657;28;20053;-73
2023/01/24 07:40:46;;;;;;;23.92;14.50;;;2.40;99.90;;;;;;5014999;28;20045;-73
2023/01/24 07:43:12;;;;;;;24.92;15.40;;;2.40;99.90;;;;;;5014954;28;20037;-74
2023/01/24 07:45:38;;;;;;;23.33;14.35;;;2.30;99.90;;;;;;5014644;28;20403;-73
2023/01/24 07:48:07;;;;;;;20.15;14.20;;;2.30;99.90;;;;;;5015339;28;20084;-74
2023/01/24 07:50:34;;;;;;;21.70;13.77;;;2.40;99.90;;;;;;5014545;28;20042;-73
2023/01/24 07:53:00;;;;;;;24.42;15.15;;;2.40;99.90;;;;;;5014649;28;20614;-73
2023/01/24 07:55:26;;;;;;;23.08;14.48;;;2.30;99.90;;;;;;5016385;28;20164;-74
2023/01/24 07:57:57;;;;;;;23.38;14.63;;;2.30;99.90;;;;;;5013950;28;20081;-74
2023/01/24 08:00:23;;;;;;;21.52;12.40;;;2.40;99.90;;;;;;5012899;28;20045;-74
2023/01/24 08:02:50;;;;;;;21.52;13.57;;;2.30;99.90;;;;;;5013271;28;20046;-74
2023/01/24 08:05:15;;;;;;;22.67;13.80;;;2.30;99.90;;;;;;5012014;28;20507;-74
2023/01/24 08:07:41;;;;;;;20.95;12.93;;;2.30;99.90;;;;;;5012539;28;20068;-73
2023/01/24 08:10:08;;;;;;;21.40;13.00;;;3.40;99.90;;;;;;5014995;28;20046;-72
2023/01/24 08:12:34;;;;;;;23.92;13.48;;;2.30;99.90;;;;;;5013376;28;20124;-72
2023/01/24 08:14:59;;;;;;;21.77;13.50;;;2.30;99.90;;;;;;5014346;28;20141;-72
2023/01/24 08:17:25;;;;;;;20.60;13.15;;;2.30;99.90;;;;;;5014844;28;20045;-72
2023/01/24 08:19:51;;;;;;;22.55;13.48;;;2.40;99.90;;;;;;5014982;28;20045;-72
2023/01/24 08:22:16;;;;;;;20.88;12.88;;;2.30;99.90;;;;;;5012772;28;20538;-72
2023/01/24 08:24:42;;;;;;;20.67;12.75;;;2.30;99.90;;;;;;5015155;28;20069;-72
2023/01/24 08:27:07;;;;;;;19.60;11.95;;;2.40;99.90;;;;;;5018060;28;20085;-73
2023/01/24 08:29:33;;;;;;;20.30;12.75;;;2.40;99.90;;;;;;5015881;28;20045;-74
2023/01/24 08:31:59;;;;;;;23.17;11.77;;;2.50;99.90;;;;;;5013143;28;20526;-73
2023/01/24 08:34:25;;;;;;;20.40;12.30;;;2.30;99.90;;;;;;5014586;28;20046;-73
2023/01/24 08:36:50;;;;;;;17.60;11.63;;;2.30;99.90;;;;;;5013945;28;20042;-73
2023/01/24 08:39:16;;;;;;;18.88;12.00;;;2.40;99.90;;;;;;5020294;28;20620;-72
2023/01/24 08:41:45;;;;;;;18.98;12.18;;;2.40;99.90;;;;;;5013915;28;20161;-73
2023/01/24 08:44:11;;;;;;;19.20;11.65;;;2.40;99.90;;;;;;5013912;28;20072;-73
2023/01/24 08:46:36;;;;;;;20.63;12.25;;;2.40;99.90;;;;;;5012889;28;20136;-73
2023/01/24 08:49:03;;;;;;;17.48;11.15;;;2.40;99.90;;;;;;5013591;28;20173;-73
2023/01/24 08:51:28;;;;;;;19.35;11.68;;;2.40;99.90;;;;;;5012935;28;20046;-73
2023/01/24 08:53:54;;;;;;;19.50;11.57;;;2.40;99.90;;;;;;5014213;28;20041;-73
2023/01/24 08:56:20;;;;;;;18.00;11.63;;;2.40;99.90;;;;;;4996297;28;20049;-74
2023/01/24 08:58:45;;;;;;;18.65;11.10;;;2.40;99.90;;;;;;5013588;28;20049;-73
2023/01/24 09:01:11;;;;;;;18.35;11.80;;;2.40;99.90;;;;;;5013726;28;20037;-73
2023/01/24 09:03:37;;;;;;;19.77;11.85;;;2.50;99.90;;;;;;5012621;28;20045;-73
2023/01/24 09:06:03;;;;;;;18.95;11.55;;;2.50;99.90;;;;;;5013855;28;20060;-73
2023/01/24 09:08:29;;;;;;;21.02;12.32;;;2.50;99.90;;;;;;5013699;28;20431;-73
2023/01/24 09:11:00;;;;;;;16.05;10.63;;;2.50;99.90;;;;;;5012927;28;20100;-73
2023/01/24 09:13:26;;;;;;;15.95;10.65;;;2.50;99.90;;;;;;5013697;28;20407;-73
2023/01/24 09:15:52;;;;;;;17.83;11.45;;;2.50;99.90;;;;;;5011147;28;20046;-73
2023/01/24 09:18:17;;;;;;;19.27;11.15;;;2.50;99.90;;;;;;5013756;28;20053;-73
2023/01/24 09:20:44;;;;;;;17.30;10.15;;;2.50;99.90;;;;;;5013143;28;20050;-73
2023/01/24 09:23:14;;;;;;;22.58;11.18;;;2.50;99.90;;;;;;5013489;28;20087;-74
2023/01/24 09:25:41;;;;;;;20.35;10.63;;;2.50;99.90;;;;;;5012944;28;20103;-74
2023/01/24 09:28:07;;;;;;;16.50;9.90;;;2.50;99.90;;;;;;5013017;28;20038;-73
2023/01/24 09:30:34;;;;;;;16.88;10.10;;;2.50;99.90;;;;;;5013162;28;20080;-73
2023/01/24 09:33:05;;;;;;;17.80;10.93;;;2.50;99.90;;;;;;5012504;28;20111;-73
2023/01/24 09:35:31;;;;;;;16.15;10.23;;;2.50;99.90;;;;;;5012851;28;20053;-73
2023/01/24 09:37:57;;;;;;;17.50;10.73;;;2.50;99.90;;;;;;5013262;28;20045;-73
2023/01/24 09:40:31;;;;;;;15.30;9.75;;;2.50;99.90;;;;;;5012739;28;20048;-73
2023/01/24 09:43:08;;;;;;;17.77;10.75;;;2.60;99.90;;;;;;5013292;28;20046;-73
2023/01/24 09:45:41;;;;;;;17.10;10.73;;;2.60;99.90;;;;;;5012589;28;20058;-73
2023/01/24 09:48:15;;;;;;;15.65;10.00;;;2.50;99.90;;;;;;5011370;28;20048;-73
2023/01/24 09:50:57;;;;;;;17.13;10.52;;;2.60;99.90;;;;;;5011754;28;20132;-73
2023/01/24 09:53:32;;;;;;;16.52;10.48;;;2.60;99.90;;;;;;5012257;28;20468;-73
2023/01/24 09:55:59;;;;;;;20.65;10.50;;;2.60;99.90;;;;;;5012470;28;20557;-73
2023/01/24 09:58:39;;;;;;;15.20;10.00;;;2.60;99.90;;;;;;5012745;28;20056;-74
2023/01/24 10:01:10;;;;;;;16.20;10.57;;;2.60;99.90;;;;;;5002980;28;20157;-73
2023/01/24 10:03:37;;;;;;;15.07;9.73;;;2.70;99.90;;;;;;5017061;28;20077;-73
2023/01/24 10:06:25;;;;;;;19.00;10.05;;;2.60;99.90;;;;;;5014601;28;20041;-72
2023/01/24 10:09:07;;;;;;;15.52;10.10;;;2.60;99.90;;;;;;5012433;28;20069;-72
2023/01/24 10:11:59;;;;;;;15.07;8.93;;;2.70;99.90;;;;;;5011590;28;20050;-72
2023/01/24 10:14:45;;;;;;;14.85;9.63;;;2.60;99.90;;;;;;5003447;28;20038;-72
2023/01/24 10:17:38;;;;;;;14.98;9.15;;;2.60;99.90;;;;;;5010678;28;20046;-72
2023/01/24 10:20:24;;;;;;;15.65;9.95;;;2.60;99.90;;;;;;5011139;28;20045;-72
2023/01/24 10:23:01;;;;;;;16.60;9.98;;;2.60;99.90;;;;;;4982062;28;20050;-73
2023/01/24 10:25:55;;;;;;;15.07;10.10;;;2.60;99.90;;;;;;5000158;28;20049;-73
2023/01/24 10:28:26;;;;;;;14.50;8.95;;;2.70;99.90;;;;;;5011440;28;20050;-73
2023/01/24 10:31:07;;;;;;;16.58;10.35;;;2.70;99.90;;;;;;5012152;28;20140;-73
2023/01/24 10:33:47;;;;;;;16.25;10.18;;;2.70;99.90;;;;;;5011454;28;20053;-73
2023/01/24 10:36:43;;;;;;;16.10;9.52;;;2.70;99.90;;;;;;5012701;28;20038;-73
2023/01/24 10:39:12;;;;;;;15.75;10.25;;;2.70;99.90;;;;;;5003208;28;20066;-73
2023/01/24 10:41:39;;;;;;;14.82;9.70;;;2.70;99.90;;;;;;5011787;28;20526;-73
2023/01/24 10:44:15;;;;;;;16.80;11.05;;;2.80;99.90;;;;;;5011247;28;20044;-73
2023/01/24 10:47:01;;;;;;;19.38;11.07;;;2.80;99.90;;;;;;5005062;28;20507;-73
2023/01/24 10:49:40;;;;;;;17.42;10.25;;;2.80;99.90;;;;;;4993846;28;20702;-73
2023/01/24 10:52:20;;;;;;;16.83;10.25;;;2.80;99.90;;;;;;5006530;28;20396;-73
2023/01/24 10:54:55;;;;;;;16.27;10.98;;;2.80;99.90;;;;;;5010659;28;20403;-73
2023/01/24 10:57:29;;;;;;;18.05;10.63;;;2.80;99.90;;;;;;5009171;28;20058;-73
2023/01/24 10:59:55;;;;;;;17.08;10.43;;;2.80;99.90;;;;;;5011205;28;20059;-72
2023/01/24 11:02:24;;;;;;;16.50;10.27;;;2.90;99.90;;;;;;5014092;28;20034;-73
2023/01/24 11:05:00;;;;;;;18.23;11.05;;;2.80;99.90;;;;;;5009352;28;20116;-73
2023/01/24 11:07:30;;;;;;;17.05;10.35;;;2.80;99.90;;;;;;5015219;28;20133;-71
2023/01/24 11:10:00;;;;;;;16.15;10.85;;;2.80;99.90;;;;;;5010959;28;20050;-72
2023/01/24 11:12:26;;;;;;;15.43;9.63;;;2.90;99.90;;;;;;5012566;28;20391;-72
2023/01/24 11:14:52;;;;;;;16.10;10.10;;;2.90;99.90;;;;;;5014130;28;20406;-72
2023/01/24 11:17:36;;;;;;;19.25;11.35;;;2.90;99.90;;;;;;5011187;28;20034;-72
2023/01/24 11:20:20;;;;;;;20.85;12.23;;;3.00;99.90;;;;;;5012777;28;20030;-72
2023/01/24 11:22:50;;;;;;;16.08;10.98;;;3.00;99.90;;;;;;5008037;28;20077;-72
2023/01/24 11:25:16;;;;;;;18.13;10.75;;;3.00;99.90;;;;;;5012922;28;20097;-71
2023/01/24 11:27:49;;;;;;;19.88;11.32;;;3.00;99.90;;;;;;5013462;28;20096;-71
2023/01/24 11:30:21;;;;;;;18.25;11.65;;;3.00;99.90;;;;;;5008896;28;20050;-71
2023/01/24 11:33:18;;;;;;;15.27;10.38;;;3.00;99.90;;;;;;5015096;28;20103;-72
2023/01/24 11:35:53;;;;;;;17.27;9.80;;;3.00;99.90;;;;;;5004078;28;20131;-72
2023/01/24 11:38:41;;;;;;;17.55;10.32;;;3.10;99.90;;;;;;5023816;28;20365;-72
2023/01/24 11:41:24;;;;;;;16.02;10.80;;;3.10;99.90;;;;;;5002032;28;20077;-71
2023/01/24 11:43:58;;;;;;;17.23;10.63;;;3.00;99.90;;;;;;5010117;28;20088;-72
2023/01/24 11:46:44;;;;;;;18.58;11.35;;;3.00;99.90;;;;;;5010933;28;20503;-72
2023/01/24 11:49:34;;;;;;;16.88;10.43;;;3.00;99.90;;;;;;5013728;28;20084;-72
2023/01/24 11:52:21;;;;;;;19.05;10.98;;;3.00;99.90;;;;;;5013565;28;20113;-72
2023/01/24 11:55:03;;;;;;;17.35;11.40;;;3.00;99.90;;;;;;5024941;28;20073;-72
2023/01/24 11:58:04;;;;;;;17.33;10.75;;;2.90;99.90;;;;;;5013383;28;20042;-72
2023/01/24 12:00:34;;;;;;;18.83;11.38;;;2.90;99.90;;;;;;4977428;28;20054;-71
2023/01/24 12:03:03;;;;;;;17.63;10.70;;;2.90;99.90;;;;;;5012421;28;20104;-72
2023/01/24 12:05:52;;;;;;;16.70;10.85;;;2.90;99.90;;;;;;5014957;28;20041;-72
2023/01/24 12:08:20;;;;;;;17.02;10.73;;;2.90;99.90;;;;;;5002583;28;20042;-72
2023/01/24 12:10:52;;;;;;;;;;;2.90;99.90;;;;;;5012414;28;20077;-72
2023/01/24 12:13:35;;;;;;;18.77;11.05;;;3.00;99.90;;;;;;4999669;28;19983;-72
2023/01/24 12:16:09;;;;;;;16.65;11.10;;;3.00;99.90;;;;;;5011647;28;20046;-72
2023/01/24 12:19:12;;;;;;;21.35;10.88;;;3.00;99.90;;;;;;5013260;28;20074;-73
2023/01/24 12:21:38;;;;;;;20.75;11.48;;;3.00;99.90;;;;;;4994463;28;20446;-71
2023/01/24 12:24:18;;;;;;;17.50;10.80;;;3.00;99.90;;;;;;5012424;28;20042;-72
2023/01/24 12:26:51;;;;;;;17.05;11.23;;;3.00;99.90;;;;;;5012797;28;20041;-73
2023/01/24 12:29:29;;;;;;;17.20;11.23;;;3.00;99.90;;;;;;5012275;28;20395;-72
2023/01/24 12:32:19;;;;;;;17.55;11.27;;;3.00;99.90;;;;;;5006986;28;20046;-72
2023/01/24 12:34:49;;;;;;;19.67;12.05;;;3.00;99.90;;;;;;5007548;28;20093;-72
2023/01/24 12:37:31;;;;;;;19.73;12.52;;;3.00;99.90;;;;;;5013752;28;20077;-71
2023/01/24 12:40:06;;;;;;;18.73;11.10;;;3.00;99.90;;;;;;5014080;28;20443;-71
2023/01/24 12:42:51;;;;;;;17.55;11.43;;;3.00;99.90;;;;;;5013032;28;20046;-71
2023/01/24 12:45:23;;;;;;;19.20;11.38;;;3.00;99.90;;;;;;5011764;28;20071;-71
2023/01/24 12:48:02;;;;;;;19.38;12.38;;;3.00;99.90;;;;;;5013437;28;20042;-71
2023/01/24 12:50:40;;;;;;;21.83;12.70;;;3.00;99.90;;;;;;5013289;28;20049;-74
2023/01/24 12:53:12;;;;;;;19.00;12.27;;;3.00;99.90;;;;;;5013999;28;20045;-73
2023/01/24 12:55:49;;;;;;;19.92;11.45;;;3.00;99.90;;;;;;5010353;28;20049;-73
2023/01/24 12:58:15;;;;;;;19.73;12.20;;;3.00;99.90;;;;;;5014124;28;20130;-72
2023/01/24 13:01:14;;;;;;;20.50;12.68;;;3.00;99.90;;;;;;5015947;28;20462;-71
2023/01/24 13:04:11;;;;;;;21.15;12.32;;;3.00;99.90;;;;;;4995139;28;20088;-72
2023/01/24 13:06:54;;;;;;;20.55;12.18;;;3.00;99.90;;;;;;4996257;28;20050;-72
2023/01/24 13:09:34;;;;;;;20.45;11.80;;;2.90;99.90;;;;;;5001956;28;20041;-71
2023/01/24 13:12:02;;;;;;;19.75;12.25;;;3.00;99.90;;;;;;5018365;28;20518;-72
2023/01/24 13:14:45;;;;;;;21.15;12.25;;;2.90;99.90;;;;;;5011033;28;20050;-72
2023/01/24 13:17:15;;;;;;;20.05;12.57;;;2.90;99.90;;;;;;5012467;28;20091;-74
2023/01/24 13:19:59;;;;;;;20.67;12.25;;;2.90;99.90;;;;;;5008458;28;20057;-72
2023/01/24 13:23:02;;;;;;;20.95;12.70;;;2.90;99.90;;;;;;5003258;28;20057;-72
2023/01/24 13:25:34;;;;;;;19.45;12.43;;;2.90;99.90;;;;;;5008915;28;20061;-72
2023/01/24 13:28:11;;;;;;;23.10;12.77;;;2.90;99.90;;;;;;5010669;28;20391;-72
2023/01/24 13:31:08;;;;;;;17.60;12.13;;;2.90;99.90;;;;;;5003228;28;20049;-73